sensor_id;sensor_type;location;lat;lon;timestamp;temperature;humidity
15983;DHT22;14442;50.196;8.096;2023-10-19T00:01:56;21.80;55.40
15983;DHT22;14442;50.196;8.096;2023-10-19T00:04:24;21.80;55.40
15983;DHT22;14442;50.196;8.096;2023-10-19T00:06:51;21.80;55.40
15983;DHT22;14442;50.196;8.096;2023-10-19T00:09:18;21.80;55.40
15983;DHT22;14442;50.196;8.096;2023-10-19T00:11:45;21.80;55.50
15983;DHT22;14442;50.196;8.096;2023-10-19T00:14:13;21.80;55.50
15983;DHT22;14442;50.196;8.096;2023-10-19T00:16:42;21.80;55.50
15983;DHT22;14442;50.196;8.096;2023-10-19T00:19:11;21.80;55.50
15983;DHT22;14442;50.196;8.096;2023-10-19T00:21:44;21.80;55.50
15983;DHT22;14442;50.196;8.096;2023-10-19T00:24:17;21.80;55.50
15983;DHT22;14442;50.196;8.096;2023-10-19T00:26:45;21.80;55.50
15983;DHT22;14442;50.196;8.096;2023-10-19T00:29:13;21.80;55.50
15983;DHT22;14442;50.196;8.096;2023-10-19T00:31:56;21.80;55.60
15983;DHT22;14442;50.196;8.096;2023-10-19T00:34:24;21.80;55.70
15983;DHT22;14442;50.196;8.096;2023-10-19T00:36:52;21.80;55.70
15983;DHT22;14442;50.196;8.096;2023-10-19T00:39:19;21.80;55.60
15983;DHT22;14442;50.196;8.096;2023-10-19T00:41:48;21.70;55.60
15983;DHT22;14442;50.196;8.096;2023-10-19T00:44:15;21.80;55.60
15983;DHT22;14442;50.196;8.096;2023-10-19T00:46:48;21.80;55.70
15983;DHT22;14442;50.196;8.096;2023-10-19T00:49:21;21.80;55.70
15983;DHT22;14442;50.196;8.096;2023-10-19T00:51:52;21.70;55.60
15983;DHT22;14442;50.196;8.096;2023-10-19T00:54:30;21.70;55.60
15983;DHT22;14442;50.196;8.096;2023-10-19T00:56:59;21.70;55.70
15983;DHT22;14442;50.196;8.096;2023-10-19T00:59:30;21.70;55.70
15983;DHT22;14442;50.196;8.096;2023-10-19T01:02:00;21.70;55.70
15983;DHT22;14442;50.196;8.096;2023-10-19T01:04:42;21.80;55.70
15983;DHT22;14442;50.196;8.096;2023-10-19T01:07:11;21.70;55.70
15983;DHT22;14442;50.196;8.096;2023-10-19T01:09:41;21.70;55.70
15983;DHT22;14442;50.196;8.096;2023-10-19T01:12:09;21.70;55.70
15983;DHT22;14442;50.196;8.096;2023-10-19T01:15:08;21.70;55.70
15983;DHT22;14442;50.196;8.096;2023-10-19T01:17:38;21.70;55.70
15983;DHT22;14442;50.196;8.096;2023-10-19T01:20:07;21.70;55.70
15983;DHT22;14442;50.196;8.096;2023-10-19T01:22:48;21.70;55.70
15983;DHT22;14442;50.196;8.096;2023-10-19T01:25:16;21.70;55.80
15983;DHT22;14442;50.196;8.096;2023-10-19T01:27:43;21.70;55.70
15983;DHT22;14442;50.196;8.096;2023-10-19T01:30:11;21.70;55.80
15983;DHT22;14442;50.196;8.096;2023-10-19T01:32:40;21.60;55.70
15983;DHT22;14442;50.196;8.096;2023-10-19T01:35:08;21.70;55.80
15983;DHT22;14442;50.196;8.096;2023-10-19T01:37:35;21.60;55.70
15983;DHT22;14442;50.196;8.096;2023-10-19T01:40:06;21.60;55.80
15983;DHT22;14442;50.196;8.096;2023-10-19T01:42:33;21.60;55.80
15983;DHT22;14442;50.196;8.096;2023-10-19T01:45:00;21.60;55.70
15983;DHT22;14442;50.196;8.096;2023-10-19T01:47:26;21.60;55.80
15983;DHT22;14442;50.196;8.096;2023-10-19T01:49:53;21.60;55.70
15983;DHT22;14442;50.196;8.096;2023-10-19T01:52:20;21.60;55.80
15983;DHT22;14442;50.196;8.096;2023-10-19T01:54:50;21.60;55.80
15983;DHT22;14442;50.196;8.096;2023-10-19T01:57:25;21.60;55.80
15983;DHT22;14442;50.196;8.096;2023-10-19T01:59:51;21.60;55.80
15983;DHT22;14442;50.196;8.096;2023-10-19T02:02:18;21.60;55.80
15983;DHT22;14442;50.196;8.096;2023-10-19T02:04:47;21.60;55.80
15983;DHT22;14442;50.196;8.096;2023-10-19T02:07:16;21.60;55.80
15983;DHT22;14442;50.196;8.096;2023-10-19T02:09:43;21.50;55.70
15983;DHT22;14442;50.196;8.096;2023-10-19T02:12:10;21.60;55.90
15983;DHT22;14442;50.196;8.096;2023-10-19T02:14:38;21.50;55.80
15983;DHT22;14442;50.196;8.096;2023-10-19T02:17:04;21.50;55.80
15983;DHT22;14442;50.196;8.096;2023-10-19T02:19:31;21.60;55.80
15983;DHT22;14442;50.196;8.096;2023-10-19T02:21:58;21.60;55.90
15983;DHT22;14442;50.196;8.096;2023-10-19T02:24:29;21.60;55.90
15983;DHT22;14442;50.196;8.096;2023-10-19T02:26:55;21.50;55.80
15983;DHT22;14442;50.196;8.096;2023-10-19T02:29:23;21.50;55.90
15983;DHT22;14442;50.196;8.096;2023-10-19T02:31:51;21.30;55.70
15983;DHT22;14442;50.196;8.096;2023-10-19T02:34:19;21.50;55.80
15983;DHT22;14442;50.196;8.096;2023-10-19T02:36:45;21.50;55.90
15983;DHT22;14442;50.196;8.096;2023-10-19T02:39:14;21.50;55.90
15983;DHT22;14442;50.196;8.096;2023-10-19T02:41:41;21.50;55.90
15983;DHT22;14442;50.196;8.096;2023-10-19T02:44:10;21.50;56.00
15983;DHT22;14442;50.196;8.096;2023-10-19T02:46:45;21.50;56.00
15983;DHT22;14442;50.196;8.096;2023-10-19T02:49:14;21.50;56.00
15983;DHT22;14442;50.196;8.096;2023-10-19T02:51:44;21.40;55.90
15983;DHT22;14442;50.196;8.096;2023-10-19T02:54:12;21.40;56.00
15983;DHT22;14442;50.196;8.096;2023-10-19T02:56:44;21.50;56.60
15983;DHT22;14442;50.196;8.096;2023-10-19T02:59:15;21.40;56.00
15983;DHT22;14442;50.196;8.096;2023-10-19T03:01:42;21.40;55.90
15983;DHT22;14442;50.196;8.096;2023-10-19T03:04:10;21.40;55.90
15983;DHT22;14442;50.196;8.096;2023-10-19T03:06:39;21.50;56.00
15983;DHT22;14442;50.196;8.096;2023-10-19T03:09:07;21.40;56.00
15983;DHT22;14442;50.196;8.096;2023-10-19T03:11:38;21.40;56.00
15983;DHT22;14442;50.196;8.096;2023-10-19T03:14:06;21.40;56.00
15983;DHT22;14442;50.196;8.096;2023-10-19T03:16:31;21.40;56.00
15983;DHT22;14442;50.196;8.096;2023-10-19T03:19:00;21.40;56.00
15983;DHT22;14442;50.196;8.096;2023-10-19T03:21:26;21.40;56.00
15983;DHT22;14442;50.196;8.096;2023-10-19T03:23:54;21.40;56.00
15983;DHT22;14442;50.196;8.096;2023-10-19T03:26:22;21.40;56.00
15983;DHT22;14442;50.196;8.096;2023-10-19T03:28:53;21.40;56.00
15983;DHT22;14442;50.196;8.096;2023-10-19T03:31:21;21.40;56.10
15983;DHT22;14442;50.196;8.096;2023-10-19T03:33:50;21.40;56.00
15983;DHT22;14442;50.196;8.096;2023-10-19T03:36:20;21.40;56.00
15983;DHT22;14442;50.196;8.096;2023-10-19T03:38:47;21.40;56.10
15983;DHT22;14442;50.196;8.096;2023-10-19T03:41:16;21.40;56.10
15983;DHT22;14442;50.196;8.096;2023-10-19T03:43:47;21.40;56.10
15983;DHT22;14442;50.196;8.096;2023-10-19T03:46:16;21.40;56.10
15983;DHT22;14442;50.196;8.096;2023-10-19T03:48:50;21.40;56.10
15983;DHT22;14442;50.196;8.096;2023-10-19T03:51:16;21.40;56.20
15983;DHT22;14442;50.196;8.096;2023-10-19T03:53:44;21.40;56.20
15983;DHT22;14442;50.196;8.096;2023-10-19T03:56:15;21.40;56.20
15983;DHT22;14442;50.196;8.096;2023-10-19T03:58:43;21.40;56.20
15983;DHT22;14442;50.196;8.096;2023-10-19T04:01:13;21.40;56.20
15983;DHT22;14442;50.196;8.096;2023-10-19T04:03:42;21.40;56.20
15983;DHT22;14442;50.196;8.096;2023-10-19T04:06:09;21.30;56.10
15983;DHT22;14442;50.196;8.096;2023-10-19T04:08:39;21.40;56.20
15983;DHT22;14442;50.196;8.096;2023-10-19T04:11:06;21.30;56.10
15983;DHT22;14442;50.196;8.096;2023-10-19T04:13:38;21.30;56.20
15983;DHT22;14442;50.196;8.096;2023-10-19T04:16:05;21.40;56.30
15983;DHT22;14442;50.196;8.096;2023-10-19T04:18:35;21.30;56.20
15983;DHT22;14442;50.196;8.096;2023-10-19T04:21:05;21.30;56.20
15983;DHT22;14442;50.196;8.096;2023-10-19T04:23:32;21.30;56.20
15983;DHT22;14442;50.196;8.096;2023-10-19T04:26:02;21.40;56.30
15983;DHT22;14442;50.196;8.096;2023-10-19T04:28:38;21.30;56.20
15983;DHT22;14442;50.196;8.096;2023-10-19T04:31:10;21.30;56.20
15983;DHT22;14442;50.196;8.096;2023-10-19T04:33:39;21.30;56.20
15983;DHT22;14442;50.196;8.096;2023-10-19T04:36:08;21.30;56.30
15983;DHT22;14442;50.196;8.096;2023-10-19T04:38:36;21.30;56.30
15983;DHT22;14442;50.196;8.096;2023-10-19T04:41:04;21.30;56.30
15983;DHT22;14442;50.196;8.096;2023-10-19T04:43:33;21.30;56.30
15983;DHT22;14442;50.196;8.096;2023-10-19T04:46:04;21.30;56.30
15983;DHT22;14442;50.196;8.096;2023-10-19T04:48:33;21.30;56.30
15983;DHT22;14442;50.196;8.096;2023-10-19T04:51:01;21.30;56.30
15983;DHT22;14442;50.196;8.096;2023-10-19T04:53:30;21.30;56.30
15983;DHT22;14442;50.196;8.096;2023-10-19T04:55:56;21.20;56.20
15983;DHT22;14442;50.196;8.096;2023-10-19T04:58:23;21.30;56.30
15983;DHT22;14442;50.196;8.096;2023-10-19T05:00:50;21.20;56.30
15983;DHT22;14442;50.196;8.096;2023-10-19T05:03:18;21.20;56.30
15983;DHT22;14442;50.196;8.096;2023-10-19T05:05:44;21.30;56.40
15983;DHT22;14442;50.196;8.096;2023-10-19T05:08:11;21.30;56.40
15983;DHT22;14442;50.196;8.096;2023-10-19T05:10:38;21.20;56.30
15983;DHT22;14442;50.196;8.096;2023-10-19T05:13:06;21.20;56.30
15983;DHT22;14442;50.196;8.096;2023-10-19T05:15:32;21.20;56.30
15983;DHT22;14442;50.196;8.096;2023-10-19T05:18:02;21.20;56.30
15983;DHT22;14442;50.196;8.096;2023-10-19T05:20:31;21.20;56.40
15983;DHT22;14442;50.196;8.096;2023-10-19T05:22:58;21.20;56.30
15983;DHT22;14442;50.196;8.096;2023-10-19T05:25:26;21.20;56.40
15983;DHT22;14442;50.196;8.096;2023-10-19T05:27:52;21.20;56.40
15983;DHT22;14442;50.196;8.096;2023-10-19T05:30:19;21.20;56.40
15983;DHT22;14442;50.196;8.096;2023-10-19T05:32:48;21.20;56.40
15983;DHT22;14442;50.196;8.096;2023-10-19T05:35:15;21.20;56.40
15983;DHT22;14442;50.196;8.096;2023-10-19T05:37:49;21.20;56.40
15983;DHT22;14442;50.196;8.096;2023-10-19T05:40:16;21.20;56.40
15983;DHT22;14442;50.196;8.096;2023-10-19T05:42:44;21.10;56.30
15983;DHT22;14442;50.196;8.096;2023-10-19T05:45:11;21.10;56.40
15983;DHT22;14442;50.196;8.096;2023-10-19T05:47:42;21.20;56.50
15983;DHT22;14442;50.196;8.096;2023-10-19T05:50:09;21.20;56.50
15983;DHT22;14442;50.196;8.096;2023-10-19T05:52:39;21.20;56.50
15983;DHT22;14442;50.196;8.096;2023-10-19T05:55:09;21.10;56.40
15983;DHT22;14442;50.196;8.096;2023-10-19T05:57:37;21.10;56.40
15983;DHT22;14442;50.196;8.096;2023-10-19T06:00:07;21.10;56.40
15983;DHT22;14442;50.196;8.096;2023-10-19T06:02:38;21.10;56.40
15983;DHT22;14442;50.196;8.096;2023-10-19T06:05:05;21.10;56.40
15983;DHT22;14442;50.196;8.096;2023-10-19T06:07:32;21.10;56.50
15983;DHT22;14442;50.196;8.096;2023-10-19T06:09:59;21.10;56.50
15983;DHT22;14442;50.196;8.096;2023-10-19T06:12:30;21.10;56.40
15983;DHT22;14442;50.196;8.096;2023-10-19T06:14:58;21.10;56.50
15983;DHT22;14442;50.196;8.096;2023-10-19T06:17:25;21.10;56.50
15983;DHT22;14442;50.196;8.096;2023-10-19T06:19:53;21.10;56.50
15983;DHT22;14442;50.196;8.096;2023-10-19T06:22:20;21.10;56.50
15983;DHT22;14442;50.196;8.096;2023-10-19T06:24:47;21.10;56.50
15983;DHT22;14442;50.196;8.096;2023-10-19T06:27:14;21.10;56.50
15983;DHT22;14442;50.196;8.096;2023-10-19T06:29:42;21.10;56.50
15983;DHT22;14442;50.196;8.096;2023-10-19T06:32:09;21.10;56.40
15983;DHT22;14442;50.196;8.096;2023-10-19T06:34:38;21.10;56.40
15983;DHT22;14442;50.196;8.096;2023-10-19T06:37:05;21.10;56.50
15983;DHT22;14442;50.196;8.096;2023-10-19T06:39:34;21.10;56.50
15983;DHT22;14442;50.196;8.096;2023-10-19T06:42:04;21.10;56.50
15983;DHT22;14442;50.196;8.096;2023-10-19T06:44:30;21.10;56.50
15983;DHT22;14442;50.196;8.096;2023-10-19T06:46:58;21.10;56.50
15983;DHT22;14442;50.196;8.096;2023-10-19T06:49:25;21.10;56.50
15983;DHT22;14442;50.196;8.096;2023-10-19T06:51:52;21.10;56.50
15983;DHT22;14442;50.196;8.096;2023-10-19T06:54:18;21.10;56.60
15983;DHT22;14442;50.196;8.096;2023-10-19T06:56:45;21.10;56.60
15983;DHT22;14442;50.196;8.096;2023-10-19T06:59:12;21.10;56.70
15983;DHT22;14442;50.196;8.096;2023-10-19T07:01:38;21.00;56.70
15983;DHT22;14442;50.196;8.096;2023-10-19T07:04:07;21.00;56.70
15983;DHT22;14442;50.196;8.096;2023-10-19T07:06:33;21.00;56.70
15983;DHT22;14442;50.196;8.096;2023-10-19T07:09:00;21.10;56.80
15983;DHT22;14442;50.196;8.096;2023-10-19T07:11:29;21.00;56.80
15983;DHT22;14442;50.196;8.096;2023-10-19T07:13:56;21.00;56.80
15983;DHT22;14442;50.196;8.096;2023-10-19T07:16:22;21.00;56.80
15983;DHT22;14442;50.196;8.096;2023-10-19T07:18:49;21.00;56.90
15983;DHT22;14442;50.196;8.096;2023-10-19T07:21:17;21.00;56.90
15983;DHT22;14442;50.196;8.096;2023-10-19T07:23:44;21.00;56.90
15983;DHT22;14442;50.196;8.096;2023-10-19T07:26:14;21.00;57.60
15983;DHT22;14442;50.196;8.096;2023-10-19T07:28:41;21.00;57.00
15983;DHT22;14442;50.196;8.096;2023-10-19T07:31:08;21.10;57.00
15983;DHT22;14442;50.196;8.096;2023-10-19T07:33:38;21.10;56.90
15983;DHT22;14442;50.196;8.096;2023-10-19T07:36:12;21.10;56.90
15983;DHT22;14442;50.196;8.096;2023-10-19T07:38:41;21.10;56.90
15983;DHT22;14442;50.196;8.096;2023-10-19T07:41:08;21.10;56.90
15983;DHT22;14442;50.196;8.096;2023-10-19T07:43:36;21.10;57.00
15983;DHT22;14442;50.196;8.096;2023-10-19T07:46:03;21.10;57.00
15983;DHT22;14442;50.196;8.096;2023-10-19T07:48:29;21.10;57.00
15983;DHT22;14442;50.196;8.096;2023-10-19T07:50:56;21.20;57.00
15983;DHT22;14442;50.196;8.096;2023-10-19T07:53:23;21.10;56.90
15983;DHT22;14442;50.196;8.096;2023-10-19T07:55:51;21.20;57.00
15983;DHT22;14442;50.196;8.096;2023-10-19T07:58:18;21.20;57.10
15983;DHT22;14442;50.196;8.096;2023-10-19T08:00:45;21.20;57.30
15983;DHT22;14442;50.196;8.096;2023-10-19T08:03:12;21.20;57.30
15983;DHT22;14442;50.196;8.096;2023-10-19T08:05:41;21.20;57.40
15983;DHT22;14442;50.196;8.096;2023-10-19T08:08:08;21.20;57.50
15983;DHT22;14442;50.196;8.096;2023-10-19T08:10:38;21.20;57.50
15983;DHT22;14442;50.196;8.096;2023-10-19T08:13:06;21.20;57.50
15983;DHT22;14442;50.196;8.096;2023-10-19T08:15:33;21.20;57.60
15983;DHT22;14442;50.196;8.096;2023-10-19T08:17:59;21.20;57.60
15983;DHT22;14442;50.196;8.096;2023-10-19T08:20:26;21.20;57.60
15983;DHT22;14442;50.196;8.096;2023-10-19T08:22:57;21.20;57.60
15983;DHT22;14442;50.196;8.096;2023-10-19T08:25:24;21.20;57.50
15983;DHT22;14442;50.196;8.096;2023-10-19T08:27:52;21.20;57.70
15983;DHT22;14442;50.196;8.096;2023-10-19T08:30:24;21.30;58.00
15983;DHT22;14442;50.196;8.096;2023-10-19T08:32:51;21.20;58.20
15983;DHT22;14442;50.196;8.096;2023-10-19T08:35:21;21.30;58.20
15983;DHT22;14442;50.196;8.096;2023-10-19T08:37:50;21.30;58.40
15983;DHT22;14442;50.196;8.096;2023-10-19T08:40:17;21.30;58.40
15983;DHT22;14442;50.196;8.096;2023-10-19T08:42:45;21.30;58.20
15983;DHT22;14442;50.196;8.096;2023-10-19T08:45:13;21.20;58.00
15983;DHT22;14442;50.196;8.096;2023-10-19T08:47:56;21.20;57.90
15983;DHT22;14442;50.196;8.096;2023-10-19T08:50:23;21.20;58.20
15983;DHT22;14442;50.196;8.096;2023-10-19T08:52:53;21.20;58.40
15983;DHT22;14442;50.196;8.096;2023-10-19T08:55:20;21.30;58.20
15983;DHT22;14442;50.196;8.096;2023-10-19T08:57:49;21.30;58.30
15983;DHT22;14442;50.196;8.096;2023-10-19T09:00:16;21.30;58.60
15983;DHT22;14442;50.196;8.096;2023-10-19T09:02:45;21.30;58.70
15983;DHT22;14442;50.196;8.096;2023-10-19T09:05:12;21.30;58.50
15983;DHT22;14442;50.196;8.096;2023-10-19T09:07:45;21.30;58.60
15983;DHT22;14442;50.196;8.096;2023-10-19T09:10:16;21.40;58.70
15983;DHT22;14442;50.196;8.096;2023-10-19T09:12:43;21.30;58.80
15983;DHT22;14442;50.196;8.096;2023-10-19T09:15:22;21.30;58.70
15983;DHT22;14442;50.196;8.096;2023-10-19T09:17:53;21.30;58.30
15983;DHT22;14442;50.196;8.096;2023-10-19T09:20:20;21.40;58.20
15983;DHT22;14442;50.196;8.096;2023-10-19T09:22:52;21.40;58.30
15983;DHT22;14442;50.196;8.096;2023-10-19T09:25:20;21.30;58.00
15983;DHT22;14442;50.196;8.096;2023-10-19T09:27:48;21.30;58.10
15983;DHT22;14442;50.196;8.096;2023-10-19T09:30:15;21.30;58.20
15983;DHT22;14442;50.196;8.096;2023-10-19T09:32:46;21.30;58.30
15983;DHT22;14442;50.196;8.096;2023-10-19T09:35:15;21.20;58.10
15983;DHT22;14442;50.196;8.096;2023-10-19T09:37:42;21.20;58.10
15983;DHT22;14442;50.196;8.096;2023-10-19T09:40:10;21.30;58.20
15983;DHT22;14442;50.196;8.096;2023-10-19T09:42:39;21.30;58.60
15983;DHT22;14442;50.196;8.096;2023-10-19T09:45:12;21.20;58.20
15983;DHT22;14442;50.196;8.096;2023-10-19T09:47:41;21.40;58.30
15983;DHT22;14442;50.196;8.096;2023-10-19T09:50:10;21.40;58.30
15983;DHT22;14442;50.196;8.096;2023-10-19T09:52:39;21.40;58.20
15983;DHT22;14442;50.196;8.096;2023-10-19T09:55:12;21.30;58.20
15983;DHT22;14442;50.196;8.096;2023-10-19T09:57:52;21.40;58.20
15983;DHT22;14442;50.196;8.096;2023-10-19T10:00:20;21.30;58.10
15983;DHT22;14442;50.196;8.096;2023-10-19T10:02:50;21.30;58.10
15983;DHT22;14442;50.196;8.096;2023-10-19T10:05:45;21.40;58.20
15983;DHT22;14442;50.196;8.096;2023-10-19T10:08:32;21.40;58.40
15983;DHT22;14442;50.196;8.096;2023-10-19T10:11:13;21.40;58.50
15983;DHT22;14442;50.196;8.096;2023-10-19T10:13:42;21.50;58.90
15983;DHT22;14442;50.196;8.096;2023-10-19T10:16:13;21.50;59.40
15983;DHT22;14442;50.196;8.096;2023-10-19T10:18:41;21.50;59.70
15983;DHT22;14442;50.196;8.096;2023-10-19T10:21:11;21.50;60.20
15983;DHT22;14442;50.196;8.096;2023-10-19T10:23:43;21.50;59.90
15983;DHT22;14442;50.196;8.096;2023-10-19T10:26:11;21.40;59.50
15983;DHT22;14442;50.196;8.096;2023-10-19T10:28:39;21.40;59.30
15983;DHT22;14442;50.196;8.096;2023-10-19T10:31:08;21.40;59.00
15983;DHT22;14442;50.196;8.096;2023-10-19T10:33:38;21.30;58.80
15983;DHT22;14442;50.196;8.096;2023-10-19T10:36:05;21.30;58.70
15983;DHT22;14442;50.196;8.096;2023-10-19T10:38:34;21.30;58.60
15983;DHT22;14442;50.196;8.096;2023-10-19T10:41:02;21.30;58.50
15983;DHT22;14442;50.196;8.096;2023-10-19T10:43:29;21.30;58.50
15983;DHT22;14442;50.196;8.096;2023-10-19T10:46:03;21.30;58.50
15983;DHT22;14442;50.196;8.096;2023-10-19T10:48:30;21.30;58.40
15983;DHT22;14442;50.196;8.096;2023-10-19T10:50:57;21.30;58.40
15983;DHT22;14442;50.196;8.096;2023-10-19T10:53:24;21.30;58.40
15983;DHT22;14442;50.196;8.096;2023-10-19T10:55:52;21.30;58.40
15983;DHT22;14442;50.196;8.096;2023-10-19T10:58:20;21.30;58.40
15983;DHT22;14442;50.196;8.096;2023-10-19T11:00:47;21.30;58.50
15983;DHT22;14442;50.196;8.096;2023-10-19T11:03:17;21.40;58.50
15983;DHT22;14442;50.196;8.096;2023-10-19T11:05:44;21.30;58.60
15983;DHT22;14442;50.196;8.096;2023-10-19T11:08:14;21.30;58.60
15983;DHT22;14442;50.196;8.096;2023-10-19T11:10:42;21.30;58.50
15983;DHT22;14442;50.196;8.096;2023-10-19T11:13:12;21.40;58.70
15983;DHT22;14442;50.196;8.096;2023-10-19T11:15:49;21.40;59.20
15983;DHT22;14442;50.196;8.096;2023-10-19T11:18:28;21.40;59.20
15983;DHT22;14442;50.196;8.096;2023-10-19T11:20:55;21.30;59.10
15983;DHT22;14442;50.196;8.096;2023-10-19T11:23:34;21.40;59.20
15983;DHT22;14442;50.196;8.096;2023-10-19T11:26:01;21.40;59.40
15983;DHT22;14442;50.196;8.096;2023-10-19T11:28:30;21.40;59.40
15983;DHT22;14442;50.196;8.096;2023-10-19T11:31:12;21.40;59.20
15983;DHT22;14442;50.196;8.096;2023-10-19T11:33:39;21.40;59.80
15983;DHT22;14442;50.196;8.096;2023-10-19T11:36:07;21.40;59.30
15983;DHT22;14442;50.196;8.096;2023-10-19T11:38:33;21.40;59.40
15983;DHT22;14442;50.196;8.096;2023-10-19T11:41:00;21.40;59.30
15983;DHT22;14442;50.196;8.096;2023-10-19T11:43:28;21.40;59.30
15983;DHT22;14442;50.196;8.096;2023-10-19T11:45:55;21.40;59.30
15983;DHT22;14442;50.196;8.096;2023-10-19T11:48:23;21.40;59.40
15983;DHT22;14442;50.196;8.096;2023-10-19T11:50:51;21.40;59.50
15983;DHT22;14442;50.196;8.096;2023-10-19T11:53:18;21.40;59.80
15983;DHT22;14442;50.196;8.096;2023-10-19T11:55:45;21.50;60.90
15983;DHT22;14442;50.196;8.096;2023-10-19T11:58:13;21.50;60.40
15983;DHT22;14442;50.196;8.096;2023-10-19T12:00:40;21.50;60.90
15983;DHT22;14442;50.196;8.096;2023-10-19T12:03:09;21.60;61.60
15983;DHT22;14442;50.196;8.096;2023-10-19T12:05:37;21.50;60.50
15983;DHT22;14442;50.196;8.096;2023-10-19T12:08:05;21.50;60.70
15983;DHT22;14442;50.196;8.096;2023-10-19T12:10:33;21.50;60.70
15983;DHT22;14442;50.196;8.096;2023-10-19T12:13:02;21.50;60.80
15983;DHT22;14442;50.196;8.096;2023-10-19T12:15:30;21.50;60.60
15983;DHT22;14442;50.196;8.096;2023-10-19T12:17:58;21.60;61.00
15983;DHT22;14442;50.196;8.096;2023-10-19T12:20:25;21.60;61.30
15983;DHT22;14442;50.196;8.096;2023-10-19T12:22:53;21.70;62.60
15983;DHT22;14442;50.196;8.096;2023-10-19T12:25:20;21.70;65.30
15983;DHT22;14442;50.196;8.096;2023-10-19T12:27:54;21.80;67.50
15983;DHT22;14442;50.196;8.096;2023-10-19T12:30:20;21.80;67.10
15983;DHT22;14442;50.196;8.096;2023-10-19T12:32:51;21.90;68.80
15983;DHT22;14442;50.196;8.096;2023-10-19T12:35:18;21.90;68.60
15983;DHT22;14442;50.196;8.096;2023-10-19T12:37:49;21.90;66.80
15983;DHT22;14442;50.196;8.096;2023-10-19T12:40:19;21.90;66.40
15983;DHT22;14442;50.196;8.096;2023-10-19T12:42:53;21.80;65.70
15983;DHT22;14442;50.196;8.096;2023-10-19T12:45:20;21.80;65.00
15983;DHT22;14442;50.196;8.096;2023-10-19T12:47:47;21.70;64.10
15983;DHT22;14442;50.196;8.096;2023-10-19T12:50:15;21.60;63.40
15983;DHT22;14442;50.196;8.096;2023-10-19T12:52:42;21.60;63.00
15983;DHT22;14442;50.196;8.096;2023-10-19T12:55:08;21.60;62.70
15983;DHT22;14442;50.196;8.096;2023-10-19T12:57:38;21.60;62.60
15983;DHT22;14442;50.196;8.096;2023-10-19T13:00:07;21.70;62.70
15983;DHT22;14442;50.196;8.096;2023-10-19T13:02:48;21.60;62.60
15983;DHT22;14442;50.196;8.096;2023-10-19T13:05:14;21.60;62.60
15983;DHT22;14442;50.196;8.096;2023-10-19T13:07:43;21.70;62.50
15983;DHT22;14442;50.196;8.096;2023-10-19T13:10:10;21.60;62.40
15983;DHT22;14442;50.196;8.096;2023-10-19T13:12:39;21.70;63.50
15983;DHT22;14442;50.196;8.096;2023-10-19T13:15:07;21.60;63.80
15983;DHT22;14442;50.196;8.096;2023-10-19T13:17:39;21.70;63.10
15983;DHT22;14442;50.196;8.096;2023-10-19T13:20:08;21.60;62.70
15983;DHT22;14442;50.196;8.096;2023-10-19T13:22:43;21.60;62.60
15983;DHT22;14442;50.196;8.096;2023-10-19T13:25:11;21.60;62.50
15983;DHT22;14442;50.196;8.096;2023-10-19T13:27:43;21.60;62.50
15983;DHT22;14442;50.196;8.096;2023-10-19T13:30:11;21.60;62.40
15983;DHT22;14442;50.196;8.096;2023-10-19T13:32:40;21.60;62.20
15983;DHT22;14442;50.196;8.096;2023-10-19T13:35:07;21.60;62.20
15983;DHT22;14442;50.196;8.096;2023-10-19T13:37:34;21.60;62.10
15983;DHT22;14442;50.196;8.096;2023-10-19T13:40:02;21.60;62.00
15983;DHT22;14442;50.196;8.096;2023-10-19T13:42:29;21.60;61.90
15983;DHT22;14442;50.196;8.096;2023-10-19T13:44:58;21.50;61.90
15983;DHT22;14442;50.196;8.096;2023-10-19T13:47:25;21.50;61.70
15983;DHT22;14442;50.196;8.096;2023-10-19T13:49:51;21.50;61.70
15983;DHT22;14442;50.196;8.096;2023-10-19T13:52:18;21.50;61.70
15983;DHT22;14442;50.196;8.096;2023-10-19T13:54:45;21.50;61.70
15983;DHT22;14442;50.196;8.096;2023-10-19T13:57:12;21.50;61.70
15983;DHT22;14442;50.196;8.096;2023-10-19T13:59:38;21.50;61.70
15983;DHT22;14442;50.196;8.096;2023-10-19T14:02:07;21.50;61.60
15983;DHT22;14442;50.196;8.096;2023-10-19T14:04:33;21.50;61.60
15983;DHT22;14442;50.196;8.096;2023-10-19T14:07:00;21.50;61.60
15983;DHT22;14442;50.196;8.096;2023-10-19T14:09:27;21.50;61.60
15983;DHT22;14442;50.196;8.096;2023-10-19T14:11:54;21.50;61.60
15983;DHT22;14442;50.196;8.096;2023-10-19T14:14:20;21.50;61.60
15983;DHT22;14442;50.196;8.096;2023-10-19T14:16:47;21.50;61.60
15983;DHT22;14442;50.196;8.096;2023-10-19T14:19:17;21.50;61.60
15983;DHT22;14442;50.196;8.096;2023-10-19T14:21:43;21.50;61.60
15983;DHT22;14442;50.196;8.096;2023-10-19T14:24:11;21.50;61.60
15983;DHT22;14442;50.196;8.096;2023-10-19T14:26:38;21.50;61.60
15983;DHT22;14442;50.196;8.096;2023-10-19T14:29:08;21.50;61.60
15983;DHT22;14442;50.196;8.096;2023-10-19T14:31:34;21.50;61.60
15983;DHT22;14442;50.196;8.096;2023-10-19T14:34:01;21.40;61.50
15983;DHT22;14442;50.196;8.096;2023-10-19T14:36:30;21.50;62.10
15983;DHT22;14442;50.196;8.096;2023-10-19T14:38:57;21.50;62.00
15983;DHT22;14442;50.196;8.096;2023-10-19T14:41:24;21.50;61.90
15983;DHT22;14442;50.196;8.096;2023-10-19T14:43:50;21.50;61.70
15983;DHT22;14442;50.196;8.096;2023-10-19T14:46:17;21.50;61.70
15983;DHT22;14442;50.196;8.096;2023-10-19T14:48:44;21.40;61.60
15983;DHT22;14442;50.196;8.096;2023-10-19T14:51:12;21.40;61.70
15983;DHT22;14442;50.196;8.096;2023-10-19T14:53:40;21.40;61.60
15983;DHT22;14442;50.196;8.096;2023-10-19T14:56:07;21.40;61.60
15983;DHT22;14442;50.196;8.096;2023-10-19T14:58:34;21.40;61.60
15983;DHT22;14442;50.196;8.096;2023-10-19T15:01:00;21.40;61.70
15983;DHT22;14442;50.196;8.096;2023-10-19T15:03:27;21.50;61.70
15983;DHT22;14442;50.196;8.096;2023-10-19T15:05:54;21.40;61.50
15983;DHT22;14442;50.196;8.096;2023-10-19T15:08:23;21.40;61.50
15983;DHT22;14442;50.196;8.096;2023-10-19T15:10:53;21.40;61.50
15983;DHT22;14442;50.196;8.096;2023-10-19T15:13:20;21.40;61.50
15983;DHT22;14442;50.196;8.096;2023-10-19T15:15:47;21.60;64.30
15983;DHT22;14442;50.196;8.096;2023-10-19T15:18:14;21.60;63.40
15983;DHT22;14442;50.196;8.096;2023-10-19T15:20:40;21.60;63.30
15983;DHT22;14442;50.196;8.096;2023-10-19T15:23:07;21.50;63.00
15983;DHT22;14442;50.196;8.096;2023-10-19T15:25:36;21.40;62.70
15983;DHT22;14442;50.196;8.096;2023-10-19T15:28:06;21.40;62.40
15983;DHT22;14442;50.196;8.096;2023-10-19T15:30:33;21.30;62.10
15983;DHT22;14442;50.196;8.096;2023-10-19T15:33:00;21.30;61.90
15983;DHT22;14442;50.196;8.096;2023-10-19T15:35:28;21.30;61.80
15983;DHT22;14442;50.196;8.096;2023-10-19T15:37:54;21.30;61.70
15983;DHT22;14442;50.196;8.096;2023-10-19T15:40:21;21.30;62.50